Time;durP1;ratioP1;P1;durP2;ratioP2;P2;SDS_P1;SDS_P2;PMS_P1;PMS_P2;Temp;Humidity;BMP_temperature;BMP_pressure;BME280_temperature;BME280_humidity;BME280_pressure;Samples;Min_cycle;Max_cycle;Signal;HPM_P1;HPM_P2
2021/12/05 00:20:29;;;;;;;5.40;3.00;;;;;;;-5.23;77.42;98075.89;102248;1314;75584;-25
2021/12/05 00:22:54;;;;;;;8.00;3.40;;;;;;;-5.48;77.96;98073.99;102310;1313;75937;-25
2021/12/05 00:25:27;;;;;;;6.30;3.10;;;;;;;-5.69;78.17;98078.86;102297;1314;74593;-25
2021/12/05 00:28:19;;;;;;;;;;;;;;;-5.84;78.65;98078.98;102275;1313;62616;-25
2021/12/05 00:50:29;;;;;;;5.80;3.20;;;;;;;-5.04;77.36;98069.34;102255;1313;76101;-25
2021/12/05 01:01:01;;;;;;;5.60;2.60;;;;;;;-5.37;77.36;98064.02;102271;1316;74854;-25
2021/12/05 01:14:53;;;;;;;10.00;3.20;;;;;;;-4.62;75.56;98061.31;102291;1316;75756;-25
2021/12/05 01:17:12;;;;;;;5.30;3.10;;;;;;;-4.97;75.94;98059.30;102273;1313;75103;-24
2021/12/05 01:19:40;;;;;;;6.40;3.80;;;;;;;-5.29;76.75;98056.13;102264;1314;73712;-25
2021/12/05 01:22:11;;;;;;;7.10;3.80;;;;;;;-5.56;77.09;98051.58;102264;1313;62013;-25
2021/12/05 01:27:24;;;;;;;9.00;4.10;;;;;;;-5.05;76.91;98056.33;102053;1313;75373;-25
2021/12/05 01:30:10;;;;;;;6.60;3.00;;;;;;;-4.50;75.26;98059.70;101974;1317;74639;-25
2021/12/05 01:57:13;;;;;;;32.30;12.10;;;;;;;-4.47;75.40;98045.86;102202;1313;75469;-25
2021/12/05 02:00:01;;;;;;;28.70;12.90;;;;;;;-4.74;75.47;98048.52;102086;1313;71614;-25
2021/12/05 02:08:44;;;;;;;27.00;8.40;;;;;;;-5.70;77.25;98051.15;102079;1313;75549;-25
2021/12/05 02:41:27;;;;;;;18.20;7.10;;;;;;;-6.38;78.73;98049.83;102192;1314;73477;-25
2021/12/05 02:43:58;;;;;;;18.10;7.70;;;;;;;-6.61;78.83;98045.92;102126;1316;61346;-25
2021/12/05 02:46:27;;;;;;;25.30;9.40;;;;;;;-6.81;79.25;98046.27;102064;1314;61141;-25
2021/12/05 02:49:01;;;;;;;18.80;8.40;;;;;;;-6.97;79.10;98047.55;102090;1317;75591;-25
2021/12/05 02:51:32;;;;;;;13.40;5.50;;;;;;;-7.08;79.14;98045.97;102271;1313;74271;-25
2021/12/05 02:56:32;;;;;;;27.40;7.50;;;;;;;-5.43;78.15;98058.93;102211;1316;61097;-25
2021/12/05 03:02:07;;;;;;;25.40;10.20;;;;;;;-5.27;75.93;98064.34;101833;1313;74539;-24
2021/12/05 03:04:40;;;;;;;24.10;9.80;;;;;;;-5.56;76.18;98067.13;102210;1313;76329;-25
2021/12/05 03:07:10;;;;;;;17.10;6.20;;;;;;;-5.84;76.99;98066.46;102290;1313;73545;-25
2021/12/05 03:09:39;;;;;;;12.20;5.20;;;;;;;-6.11;77.88;98064.92;102186;1316;61373;-25
2021/12/05 03:12:10;;;;;;;12.30;5.60;;;;;;;-6.38;78.16;98060.98;102047;1317;61516;-25
2021/12/05 03:14:39;;;;;;;15.70;5.50;;;;;;;-6.61;78.23;98054.01;102100;1313;75512;-25
2021/12/05 03:17:07;;;;;;;11.00;5.50;;;;;;;-6.81;78.39;98051.52;102304;1319;76056;-24
2021/12/05 03:19:35;;;;;;;14.60;4.60;;;;;;;-6.98;78.65;98049.78;102301;1314;74493;-25
2021/12/05 03:22:04;;;;;;;8.80;4.20;;;;;;;-6.57;79.12;98041.91;102258;1313;62226;-25
2021/12/05 03:24:40;;;;;;;13.00;4.50;;;;;;;-5.57;76.83;98045.83;102271;1313;61116;-25
2021/12/05 03:27:08;;;;;;;19.90;6.70;;;;;;;-5.27;75.63;98044.35;102297;1314;74630;-25
2021/12/05 03:29:37;;;;;;;32.30;10.50;;;;;;;-5.42;74.94;98039.13;102300;1316;75925;-25
2021/12/05 03:32:07;;;;;;;13.60;7.40;;;;;;;-5.73;75.34;98036.37;102306;1314;71487;-25
2021/12/05 03:34:35;;;;;;;10.10;3.50;;;;;;;-6.09;75.85;98040.38;102287;1314;61188;-24
2021/12/05 03:37:04;;;;;;;7.30;4.00;;;;;;;-6.49;76.18;98033.92;102300;1316;61148;-24
2021/12/05 03:39:34;;;;;;;11.90;4.20;;;;;;;-6.86;77.02;98030.89;102319;1313;73959;-25
2021/12/05 03:42:03;;;;;;;13.20;6.10;;;;;;;-7.17;78.03;98033.55;102295;1314;74618;-25
2021/12/05 03:44:34;;;;;;;8.80;4.20;;;;;;;-7.41;78.76;98037.54;102223;1316;73222;-25
2021/12/05 03:47:05;;;;;;;5.10;3.20;;;;;;;-7.09;79.07;98038.76;102059;1316;63484;-25
2021/12/05 03:49:35;;;;;;;5.50;3.10;;;;;;;-6.15;77.35;98043.41;101821;1316;61205;-25
2021/12/05 03:52:13;;;;;;;7.90;3.50;;;;;;;-5.79;76.16;98047.40;102159;1316;75492;-25
2021/12/05 03:54:42;;;;;;;7.30;4.60;;;;;;;-5.89;76.36;98046.00;101869;1317;76055;-25
2021/12/05 03:57:11;;;;;;;7.60;4.50;;;;;;;-6.11;76.76;98049.56;102121;1317;73618;-25
2021/12/05 03:59:42;;;;;;;9.00;4.00;;;;;;;-6.36;77.36;98049.61;101870;1319;61220;-25
2021/12/05 04:02:10;;;;;;;6.10;3.30;;;;;;;-6.60;77.62;98046.05;102187;1313;61743;-25
2021/12/05 04:04:42;;;;;;;5.10;3.00;;;;;;;-6.82;77.59;98052.38;102181;1316;74406;-24
2021/12/05 04:07:15;;;;;;;6.30;3.60;;;;;;;-7.03;78.47;98053.61;102092;1317;76099;-24
2021/12/05 04:09:44;;;;;;;6.50;2.50;;;;;;;-7.16;78.79;98050.23;102283;1317;73239;-25
2021/12/05 04:12:27;;;;;;;7.80;4.20;;;;;;;-6.51;78.85;98055.26;102294;1316;62858;-25
2021/12/05 04:14:56;;;;;;;13.70;6.80;;;;;;;-5.67;76.97;98059.03;102254;1314;61183;-25
2021/12/05 04:17:27;;;;;;;7.40;4.10;;;;;;;-5.46;75.91;98059.40;102173;1313;75589;-25
2021/12/05 04:19:57;;;;;;;11.20;5.80;;;;;;;-5.62;75.73;98063.09;102105;1319;76215;-25
2021/12/05 04:22:25;;;;;;;11.20;4.00;;;;;;;-5.86;76.32;98062.48;102234;1319;74654;-25
2021/12/05 04:24:55;;;;;;;7.00;3.90;;;;;;;-6.13;76.38;98062.30;102201;1316;61325;-24
2021/12/05 04:27:24;;;;;;;4.80;2.40;;;;;;;-6.37;77.21;98060.27;102171;1313;61147;-25
2021/12/05 04:29:53;;;;;;;8.10;3.40;;;;;;;-6.58;77.14;98062.54;102164;1319;74151;-25
2021/12/05 04:32:21;;;;;;;6.70;3.60;;;;;;;-6.80;77.39;98065.85;102188;1313;76323;-25
2021/12/05 04:34:51;;;;;;;7.60;3.30;;;;;;;-7.02;77.99;98062.20;102181;1313;73463;-25
2021/12/05 04:37:20;;;;;;;7.80;3.60;;;;;;;-7.18;78.64;98062.93;101438;1313;1003200;-25
2021/12/05 04:39:50;;;;;;;4.70;2.50;;;;;;;-6.68;79.03;98065.35;102167;1313;62267;-25
2021/12/05 04:42:19;;;;;;;11.80;3.30;;;;;;;-5.65;77.31;98072.67;102048;1314;74344;-25
2021/12/05 04:44:47;;;;;;;4.50;2.90;;;;;;;-5.29;75.54;98070.51;102326;1317;74482;-25
2021/12/05 04:47:16;;;;;;;8.30;4.90;;;;;;;-5.40;75.15;98065.95;102333;1313;73510;-25
2021/12/05 04:49:44;;;;;;;11.20;5.00;;;;;;;-5.67;75.18;98064.77;102253;1314;61395;-25
2021/12/05 04:52:14;;;;;;;8.70;3.60;;;;;;;-5.97;75.94;98063.66;102187;1316;61121;-25
2021/12/05 04:54:43;;;;;;;6.30;3.10;;;;;;;-6.27;76.62;98058.46;102203;1316;75442;-25
2021/12/05 04:57:11;;;;;;;9.90;4.60;;;;;;;-6.55;77.08;98054.01;102156;1316;76069;-24
2021/12/05 04:59:49;;;;;;;9.80;5.20;;;;;;;-6.78;77.91;98057.18;102161;1316;75022;-25
2021/12/05 05:02:18;;;;;;;9.60;5.70;;;;;;;-6.99;78.11;98052.50;101462;1313;1004041;-25
2021/12/05 05:04:49;;;;;;;15.30;6.20;;;;;;;-7.18;78.79;98044.88;102288;1316;62138;-25
2021/12/05 05:07:25;;;;;;;17.10;5.00;;;;;;;-7.30;79.74;98042.16;102279;1313;76012;-24
2021/12/05 05:09:57;;;;;;;94.40;28.20;;;;;;;-6.63;79.38;98046.64;102312;1314;74263;-25
2021/12/05 05:12:25;;;;;;;70.60;18.10;;;;;;;-5.70;76.99;98059.80;101907;1319;73875;-25
2021/12/05 05:14:54;;;;;;;53.10;16.70;;;;;;;-5.47;75.23;98058.58;102191;1314;61466;-25
2021/12/05 05:17:23;;;;;;;46.40;15.40;;;;;;;-5.65;74.88;98062.83;102171;1313;62123;-25
2021/12/05 05:19:56;;;;;;;56.80;21.10;;;;;;;-5.93;75.67;98065.21;102113;1313;73879;-25
2021/12/05 05:22:43;;;;;;;87.20;21.50;;;;;;;-6.24;75.86;98069.52;102173;1316;76259;-25
2021/12/05 05:44:36;;;;;;;66.70;17.50;;;;;;;-5.53;76.51;98109.14;102020;1316;61398;-25
2021/12/05 05:50:06;;;;;;;55.10;19.70;;;;;;;-5.62;75.34;98107.23;102009;1319;74923;-25
2021/12/05 05:52:35;;;;;;;41.70;14.10;;;;;;;-5.94;75.45;98103.47;102290;1313;73209;-23
2021/12/05 05:55:04;;;;;;;29.70;10.00;;;;;;;-6.26;76.22;98101.70;102283;1317;61346;-24
2021/12/05 05:57:40;;;;;;;25.30;9.90;;;;;;;-6.57;76.52;98100.85;102064;1316;61186;-24
2021/12/05 06:00:18;;;;;;;20.70;8.40;;;;;;;-6.85;77.15;98104.29;102197;1312;75464;-24
2021/12/05 06:05:34;;;;;;;17.60;7.10;;;;;;;-7.29;78.60;98101.52;102152;1313;74504;-24
2021/12/05 06:08:03;;;;;;;14.40;3.70;;;;;;;-7.42;79.14;98098.27;102127;1316;63768;-24
2021/12/05 06:10:32;;;;;;;9.00;4.60;;;;;;;-6.88;78.98;98100.13;102176;1316;61120;-24
2021/12/05 06:13:00;;;;;;;16.20;5.50;;;;;;;-5.86;76.90;98110.14;102205;1317;75771;-24
2021/12/05 06:15:29;;;;;;;29.90;11.90;;;;;;;-5.51;75.02;98117.37;102103;1314;76083;-24
2021/12/05 06:18:00;;;;;;;24.60;11.30;;;;;;;-5.59;74.36;98117.11;102148;1316;73157;-24
2021/12/05 06:20:29;;;;;;;19.00;8.20;;;;;;;-5.79;74.53;98116.88;102242;1316;61204;-24
2021/12/05 06:23:00;;;;;;;17.80;7.60;;;;;;;-6.01;75.35;98120.39;101973;1317;61622;-24
2021/12/05 06:25:31;;;;;;;16.00;5.50;;;;;;;-6.21;75.73;98122.83;102162;1316;75312;-24
2021/12/05 06:28:03;;;;;;;9.80;5.20;;;;;;;-6.40;75.82;98123.70;102094;1319;75233;-24
2021/12/05 06:30:41;;;;;;;11.00;5.30;;;;;;;-6.59;76.33;98124.88;102173;1314;70619;-24
2021/12/05 06:46:33;;;;;;;11.70;5.40;;;;;;;-5.28;75.87;98134.42;102147;1317;61202;-24
2021/12/05 06:49:01;;;;;;;17.50;8.80;;;;;;;-4.78;74.99;98143.66;101835;1316;61091;-24
2021/12/05 06:51:30;;;;;;;11.60;6.40;;;;;;;-4.81;74.17;98141.89;102088;1319;74646;-24
2021/12/05 06:54:08;;;;;;;7.60;4.30;;;;;;;-4.99;74.38;98140.10;102119;1314;75248;-24
2021/12/05 06:56:37;;;;;;;11.50;5.10;;;;;;;-5.17;75.13;98137.96;102081;1319;74351;-24
2021/12/05 06:59:05;;;;;;;11.00;6.20;;;;;;;-5.32;74.96;98137.60;102138;1316;61278;-24
2021/12/05 07:01:34;;;;;;;13.80;6.60;;;;;;;-5.40;75.27;98135.15;102161;1317;61169;-24
2021/12/05 07:04:11;;;;;;;10.40;5.90;;;;;;;-5.42;76.04;98134.04;102255;1316;75830;-24
2021/12/05 07:06:41;;;;;;;9.20;5.20;;;;;;;-5.39;75.89;98138.86;102147;1314;75069;-24
2021/12/05 07:09:11;;;;;;;8.20;5.30;;;;;;;-5.39;76.57;98135.46;102145;1317;73506;-24
2021/12/05 07:11:58;;;;;;;12.40;5.40;;;;;;;-5.40;76.15;98139.04;102137;1317;61204;-24
2021/12/05 07:15:12;;;;;;;8.00;3.80;;;;;;;-5.39;76.91;98124.81;101357;1316;1003584;-24
2021/12/05 07:25:31;;;;;;;13.80;8.10;;;;;;;-3.43;72.98;98114.38;102133;1316;61255;-25
2021/12/05 07:42:04;;;;;;;22.50;12.00;;;;;;;-3.54;75.26;98120.23;102307;1316;62095;-25
2021/12/05 07:44:33;;;;;;;15.40;7.90;;;;;;;-2.75;73.06;98124.23;102225;1316;75575;-24
2021/12/05 07:47:02;;;;;;;11.30;6.90;;;;;;;-2.62;72.37;98128.61;102146;1317;76052;-24
2021/12/05 07:49:31;;;;;;;11.90;6.60;;;;;;;-2.75;71.85;98122.35;102105;1316;74471;-24
2021/12/05 07:51:59;;;;;;;15.90;6.90;;;;;;;-2.96;71.82;98119.47;102174;1316;61220;-24
2021/12/05 07:54:42;;;;;;;6.30;4.60;;;;;;;-3.13;72.31;98124.23;102232;1316;62499;-25
2021/12/05 08:00:07;;;;;;;17.80;10.40;;;;;;;-3.50;73.63;98130.61;102173;1313;75903;-24
2021/12/05 08:14:23;;;;;;;10.30;6.90;;;;;;;-1.89;71.30;98159.29;102055;1317;75091;-24
2021/12/05 08:16:53;;;;;;;15.00;7.30;;;;;;;-1.91;71.33;98158.90;102235;1314;73498;-24
2021/12/05 08:19:21;;;;;;;10.70;6.10;;;;;;;-2.05;71.47;98156.58;102252;1317;61201;-25
2021/12/05 08:21:56;;;;;;;8.90;5.30;;;;;;;-2.22;71.59;98160.42;102299;1313;61820;-24
2021/12/05 08:24:29;;;;;;;11.40;6.70;;;;;;;-2.33;72.28;98157.30;102282;1314;73337;-24
2021/12/05 08:26:58;;;;;;;11.30;6.70;;;;;;;-2.42;72.49;98154.98;102308;1318;76149;-24
2021/12/05 08:29:35;;;;;;;10.70;6.50;;;;;;;-2.50;73.06;98154.80;102303;1314;74168;-24
2021/12/05 08:32:16;;;;;;;11.90;5.80;;;;;;;-2.56;73.43;98154.67;102180;1314;61214;-24
2021/12/05 08:46:08;;;;;;;11.30;5.40;;;;;;;-0.90;70.13;98159.15;102149;1316;61121;-24
2021/12/05 09:40:06;;;;;;;8.50;4.80;;;;;;;-1.11;72.68;98144.80;101471;1323;75000;-24
2021/12/05 10:07:03;;;;;;;8.70;5.40;;;;;;;-0.43;72.17;98143.16;101281;1329;74849;-24
2021/12/05 10:15:43;;;;;;;8.70;5.20;;;;;;;1.19;67.62;98135.23;101297;1326;61209;-24
2021/12/05 10:35:52;;;;;;;6.90;3.60;;;;;;;0.09;71.94;98097.53;101269;1323;74855;-25
2021/12/05 10:38:26;;;;;;;10.70;4.80;;;;;;;0.64;69.48;98100.88;101273;1326;73354;-24
2021/12/05 10:41:02;;;;;;;10.40;6.70;;;;;;;0.58;69.94;98094.19;102311;1313;74499;-24
2021/12/05 10:43:31;;;;;;;11.50;6.10;;;;;;;0.34;70.28;98094.98;102280;1313;61204;-24
2021/12/05 10:46:03;;;;;;;9.50;6.10;;;;;;;0.12;71.00;98097.19;102321;1314;61095;-24
2021/12/05 10:48:53;;;;;;;9.70;5.40;;;;;;;-0.06;71.67;98096.27;102278;1317;73303;-24
2021/12/05 10:51:25;;;;;;;9.40;4.90;;;;;;;-0.30;72.06;98103.31;102266;1313;74543;-23
2021/12/05 10:54:00;;;;;;;6.20;4.40;;;;;;;-0.50;72.74;98108.58;102156;1313;73142;-23
2021/12/05 10:56:42;;;;;;;11.70;7.10;;;;;;;-0.63;73.51;98104.98;102120;1314;61109;-24
2021/12/05 10:59:12;;;;;;;11.20;5.50;;;;;;;-0.19;73.07;98101.89;101944;1319;61967;-23
2021/12/05 11:01:55;;;;;;;8.10;4.30;;;;;;;0.18;71.30;98106.42;102032;1313;72041;-24
2021/12/05 11:04:32;;;;;;;5.60;3.60;;;;;;;0.11;71.27;98108.99;101884;1313;74098;-24
2021/12/05 11:07:04;;;;;;;5.40;3.20;;;;;;;-0.06;71.68;98109.59;101813;1313;73332;-23
2021/12/05 11:09:35;;;;;;;;;;;;;;;-0.34;72.39;98108.83;102204;1313;61551;-23
2021/12/05 11:12:14;;;;;;;9.10;5.20;;;;;;;-0.63;73.53;98108.91;102296;1316;61093;-23
2021/12/05 11:14:44;;;;;;;8.40;4.70;;;;;;;-0.79;74.30;98116.34;102264;1313;74808;-23
2021/12/05 11:17:21;;;;;;;12.50;6.60;;;;;;;-0.90;74.65;98120.80;102233;1313;73241;-23
2021/12/05 11:19:52;;;;;;;7.20;4.70;;;;;;;-0.38;74.17;98125.56;101804;1313;73449;-23
2021/12/05 11:22:29;;;;;;;3.90;2.40;;;;;;;0.04;72.70;98125.95;102149;1313;61243;-23
2021/12/05 11:25:05;;;;;;;8.60;4.90;;;;;;;0.05;72.46;98133.41;102312;1313;61154;-24
2021/12/05 11:27:43;;;;;;;9.60;5.40;;;;;;;-0.16;72.56;98133.47;102195;1313;74883;-24
2021/12/05 11:30:21;;;;;;;8.20;5.00;;;;;;;-0.47;73.67;98137.63;101896;1313;76233;-24
2021/12/05 11:32:52;;;;;;;7.80;4.60;;;;;;;-0.72;74.24;98134.42;102105;1316;73274;-24
2021/12/05 11:35:35;;;;;;;6.80;3.80;;;;;;;-0.93;75.02;98130.67;102099;1314;61172;-24
2021/12/05 11:38:03;;;;;;;11.50;5.80;;;;;;;-0.50;74.95;98132.45;102303;1314;61900;-24
2021/12/05 11:40:55;;;;;;;7.30;4.60;;;;;;;-0.00;73.15;98131.45;102311;1313;74873;-24
2021/12/05 11:43:25;;;;;;;10.10;5.30;;;;;;;-0.06;72.70;98135.52;102294;1313;76565;-24
2021/12/05 11:45:54;;;;;;;8.30;4.90;;;;;;;-0.31;73.30;98139.36;102263;1313;74451;-24
2021/12/05 11:48:29;;;;;;;7.00;5.20;;;;;;;-0.62;74.15;98141.24;102294;1313;61307;-24
2021/12/05 11:50:58;;;;;;;8.50;4.80;;;;;;;-0.82;74.95;98143.59;101888;1313;61198;-23
2021/12/05 11:53:39;;;;;;;8.70;5.10;;;;;;;-0.98;75.39;98140.11;102041;1313;74829;-23
2021/12/05 11:56:08;;;;;;;8.10;4.60;;;;;;;-0.59;75.82;98130.20;102109;1314;74054;-24
2021/12/05 11:58:37;;;;;;;6.30;3.90;;;;;;;-0.16;73.86;98131.45;102105;1313;74264;-24
2021/12/05 12:01:10;;;;;;;9.10;4.40;;;;;;;-0.17;73.54;98132.14;102197;1316;61214;-24
2021/12/05 12:03:39;;;;;;;9.10;3.80;;;;;;;-0.38;74.10;98132.20;101838;1313;61204;-24
2021/12/05 12:06:08;;;;;;;11.20;5.50;;;;;;;-0.57;74.84;98124.30;102170;1317;74927;-24
2021/12/05 12:08:36;;;;;;;13.00;6.80;;;;;;;-0.79;75.02;98119.77;102190;1314;74576;-24
2021/12/05 12:11:05;;;;;;;10.90;5.30;;;;;;;-0.96;75.92;98117.02;102145;1314;74355;-23
2021/12/05 12:13:35;;;;;;;7.90;4.60;;;;;;;-0.65;76.24;98115.80;102190;1313;62928;-23
2021/12/05 12:16:07;;;;;;;7.90;4.30;;;;;;;0.01;74.29;98114.66;102042;1317;62971;-24
2021/12/05 12:18:39;;;;;;;9.50;5.90;;;;;;;0.24;73.41;98117.38;101941;1314;73528;-24
2021/12/05 12:21:16;;;;;;;9.40;5.20;;;;;;;0.18;73.26;98122.45;102152;1313;75192;-24
2021/12/05 12:23:50;;;;;;;7.20;4.50;;;;;;;-0.00;73.45;98120.37;101944;1314;73422;-24
2021/12/05 12:26:19;;;;;;;6.60;4.20;;;;;;;-0.26;74.17;98125.95;102060;1313;61410;-24
2021/12/05 12:28:47;;;;;;;11.70;7.10;;;;;;;-0.48;74.95;98134.77;102227;1316;61090;-23
2021/12/05 12:31:21;;;;;;;13.80;6.00;;;;;;;-0.45;75.62;98136.15;102225;1311;73799;-23
2021/12/05 12:33:52;;;;;;;9.20;5.50;;;;;;;0.09;74.36;98138.66;102269;1313;72390;-24
2021/12/05 12:36:38;;;;;;;9.10;5.00;;;;;;;0.14;73.46;98138.60;102275;1313;73992;-24
2021/12/05 12:39:35;;;;;;;9.50;5.80;;;;;;;-0.10;73.89;98137.43;102232;1316;61205;-24
2021/12/05 12:42:12;;;;;;;10.20;5.40;;;;;;;-0.41;75.14;98141.55;102104;1313;61520;-25
2021/12/05 12:44:59;;;;;;;12.20;6.80;;;;;;;-0.68;76.08;98140.70;101869;1313;74822;-24
2021/12/05 12:47:53;;;;;;;5.10;3.60;;;;;;;-0.88;76.69;98141.84;101779;1317;75279;-25
2021/12/05 12:50:36;;;;;;;11.20;5.10;;;;;;;-0.40;75.83;98146.98;102258;1313;71871;-25
2021/12/05 12:53:12;;;;;;;7.10;4.60;;;;;;;-0.22;74.74;98155.41;102276;1314;61258;-25
2021/12/05 12:55:44;;;;;;;10.40;5.10;;;;;;;-0.32;75.05;98157.86;102235;1313;61879;-24
2021/12/05 12:58:13;;;;;;;6.30;3.90;;;;;;;-0.51;75.48;98157.59;102217;1313;73767;-24
2021/12/05 13:00:44;;;;;;;8.20;4.60;;;;;;;-0.77;76.30;98155.10;102190;1313;75106;-25
2021/12/05 13:03:28;;;;;;;9.30;4.80;;;;;;;-0.99;77.07;98149.70;102273;1313;74196;-24
2021/12/05 13:11:51;;;;;;;5.30;3.20;;;;;;;-0.46;75.80;98143.86;102189;1314;73236;-24
2021/12/05 13:14:21;;;;;;;7.00;4.20;;;;;;;-0.73;76.82;98150.82;102028;1313;76126;-24
2021/12/05 13:16:49;;;;;;;11.70;7.10;;;;;;;-0.92;77.56;98150.21;102209;1316;73292;-24
2021/12/05 13:19:26;;;;;;;11.20;5.20;;;;;;;-1.06;77.96;98151.89;102077;1315;61206;-24
2021/12/05 13:22:06;;;;;;;14.00;7.90;;;;;;;-0.54;77.56;98157.03;102028;1317;62235;-24
2021/12/05 13:24:42;;;;;;;4.20;2.80;;;;;;;0.13;75.50;98156.54;102094;1313;73568;-24
2021/12/05 13:27:29;;;;;;;10.00;5.40;;;;;;;0.18;74.54;98155.92;102192;1316;74092;-24
2021/12/05 13:29:57;;;;;;;8.50;4.60;;;;;;;-0.15;75.39;98158.34;102271;1313;73002;-24
2021/12/05 13:32:29;;;;;;;9.40;5.10;;;;;;;-0.39;76.00;98159.21;102308;1314;61179;-27
2021/12/05 13:35:07;;;;;;;10.10;5.00;;;;;;;-0.66;77.04;98162.95;102233;1314;61274;-27
2021/12/05 13:37:48;;;;;;;6.20;3.60;;;;;;;-0.92;77.81;98156.87;102138;1314;75633;-36
2021/12/05 13:40:21;;;;;;;11.70;5.00;;;;;;;-0.55;78.00;98153.70;101824;1316;76114;-26
2021/12/05 13:43:05;;;;;;;8.80;6.10;;;;;;;0.04;76.00;98149.50;101803;1314;73505;-25
2021/12/05 13:45:41;;;;;;;12.20;5.30;;;;;;;0.09;75.52;98148.69;101969;1313;61241;-24
2021/12/05 13:48:15;;;;;;;10.30;5.50;;;;;;;-0.08;75.63;98150.77;101896;1314;61540;-24
2021/12/05 13:50:51;;;;;;;11.30;6.80;;;;;;;-0.33;76.34;98152.92;102160;1313;75649;-24
2021/12/05 13:53:21;;;;;;;12.70;6.60;;;;;;;-0.58;77.07;98155.70;102363;1313;75824;-28
2021/12/05 13:55:53;;;;;;;11.00;5.10;;;;;;;-0.77;77.57;98155.61;102185;1313;74964;-30
2021/12/05 13:58:35;;;;;;;4.60;2.90;;;;;;;-0.93;78.31;98161.71;102199;1313;61978;-24
2021/12/05 14:01:27;;;;;;;12.10;6.30;;;;;;;-0.44;77.80;98164.73;102127;1313;62311;-25
2021/12/05 14:04:08;;;;;;;11.20;5.40;;;;;;;-0.03;76.34;98159.41;102103;1313;74589;-25
2021/12/05 14:06:54;;;;;;;9.40;5.70;;;;;;;-0.10;76.04;98161.47;102272;1314;75728;-25
2021/12/05 14:09:43;;;;;;;9.70;5.90;;;;;;;-0.32;76.46;98160.73;102255;1313;73207;-25
2021/12/05 14:12:29;;;;;;;9.30;5.60;;;;;;;-0.58;77.21;98160.30;102050;1313;61057;-25
2021/12/05 14:15:00;;;;;;;5.50;2.80;;;;;;;-0.81;78.03;98160.10;102276;1314;62070;-24
2021/12/05 14:17:45;;;;;;;7.60;4.60;;;;;;;-0.66;78.71;98160.20;102244;1314;75549;-24
2021/12/05 14:20:15;;;;;;;6.20;4.10;;;;;;;-0.03;76.93;98159.41;102094;1313;76151;-25
2021/12/05 14:22:46;;;;;;;12.20;5.40;;;;;;;0.09;76.12;98161.99;102093;1313;72994;-24
2021/12/05 14:25:16;;;;;;;5.90;3.40;;;;;;;-0.08;76.58;98164.27;102069;1317;61400;-24
2021/12/05 14:27:47;;;;;;;11.00;5.40;;;;;;;-0.35;77.30;98161.89;101887;1313;61937;-24
2021/12/05 14:30:21;;;;;;;9.50;5.30;;;;;;;-0.59;78.27;98170.77;101765;1316;75634;-25
2021/12/05 14:32:53;;;;;;;6.20;3.40;;;;;;;-0.78;78.83;98166.06;101965;1313;74599;-25
2021/12/05 14:35:23;;;;;;;13.00;5.60;;;;;;;-0.31;78.48;98169.36;102016;1313;73481;-25
2021/12/05 14:37:52;;;;;;;10.00;4.50;;;;;;;0.27;76.68;98167.59;102093;1316;62163;-25
2021/12/05 14:40:22;;;;;;;10.30;5.70;;;;;;;0.30;76.02;98169.48;102209;1314;61212;-25
2021/12/05 14:42:50;;;;;;;14.90;7.10;;;;;;;0.09;76.40;98168.01;102092;1316;74859;-25
2021/12/05 14:45:22;;;;;;;10.30;5.30;;;;;;;-0.17;77.25;98170.89;102137;1319;76061;-24
2021/12/05 14:47:52;;;;;;;10.30;5.30;;;;;;;-0.42;77.96;98173.66;101973;1314;73508;-24
2021/12/05 14:50:30;;;;;;;18.50;7.80;;;;;;;-0.64;78.59;98175.27;101979;1313;61230;-24
2021/12/05 14:53:00;;;;;;;10.50;4.90;;;;;;;-0.59;79.19;98177.79;102267;1313;61233;-24
2021/12/05 14:55:30;;;;;;;7.00;3.90;;;;;;;0.10;78.06;98180.22;102308;1313;75602;-23
2021/12/05 14:58:04;;;;;;;12.80;7.00;;;;;;;0.38;76.68;98183.20;102241;1314;74642;-23
2021/12/05 15:00:38;;;;;;;6.30;3.40;;;;;;;0.28;76.66;98182.38;102324;1313;74164;-24
2021/12/05 15:03:16;;;;;;;7.80;4.60;;;;;;;0.02;77.01;98181.34;102093;1316;61176;-22
2021/12/05 15:05:51;;;;;;;13.10;4.50;;;;;;;-0.24;77.88;98180.46;102257;1313;61212;-25
2021/12/05 15:08:21;;;;;;;11.80;5.70;;;;;;;-0.51;78.81;98184.67;102287;1317;75621;-25
2021/12/05 15:11:08;;;;;;;15.70;6.90;;;;;;;-0.44;79.64;98186.06;102276;1317;75119;-24
2021/12/05 15:13:36;;;;;;;7.90;4.20;;;;;;;0.14;78.02;98186.19;102116;1313;73482;-25
2021/12/05 15:16:05;;;;;;;6.80;4.00;;;;;;;0.21;77.31;98182.92;102283;1314;61109;-25
2021/12/05 15:18:39;;;;;;;6.20;3.90;;;;;;;0.02;77.11;98184.59;102271;1313;61119;-24
2021/12/05 15:21:07;;;;;;;8.00;4.50;;;;;;;-0.24;77.78;98187.09;102186;1314;73267;-24
2021/12/05 15:23:36;;;;;;;8.20;5.10;;;;;;;-0.46;78.50;98193.82;102157;1313;75093;-24
2021/12/05 15:26:04;;;;;;;5.00;3.30;;;;;;;-0.60;79.17;98192.45;102164;1313;74399;-24
2021/12/05 15:28:35;;;;;;;9.80;5.10;;;;;;;-0.07;78.46;98186.58;102133;1313;61163;-25
2021/12/05 15:31:04;;;;;;;9.00;4.80;;;;;;;0.33;77.07;98185.71;102171;1314;61192;-25
2021/12/05 15:33:34;;;;;;;8.50;4.80;;;;;;;0.27;76.89;98182.26;102228;1313;72891;-24
2021/12/05 15:36:03;;;;;;;9.80;4.50;;;;;;;0.05;76.99;98186.30;102170;1311;75373;-25
2021/12/05 15:38:33;;;;;;;5.90;3.00;;;;;;;-0.21;77.73;98178.91;101970;1314;73579;-24
2021/12/05 15:41:09;;;;;;;7.80;3.80;;;;;;;-0.44;78.36;98173.97;102177;1314;61184;-25
2021/12/05 15:43:39;;;;;;;11.40;4.90;;;;;;;-0.40;79.10;98169.33;101948;1313;61901;-25
2021/12/05 15:46:12;;;;;;;7.90;4.20;;;;;;;0.27;77.57;98167.73;101813;1313;74648;-23
2021/12/05 15:48:46;;;;;;;11.30;4.80;;;;;;;0.49;76.53;98166.77;102079;1313;75256;-23
2021/12/05 15:51:15;;;;;;;13.80;6.90;;;;;;;0.35;76.40;98162.70;102117;1314;74163;-23
2021/12/05 15:53:44;;;;;;;11.50;5.60;;;;;;;0.10;77.02;98159.77;102100;1313;61176;-23
2021/12/05 15:56:14;;;;;;;8.30;4.20;;;;;;;-0.18;77.77;98164.27;102066;1317;62271;-24
2021/12/05 15:58:58;;;;;;;13.30;6.70;;;;;;;-0.41;78.38;98164.05;102101;1313;75734;-25
2021/12/05 16:01:27;;;;;;;7.40;3.60;;;;;;;-0.44;79.24;98159.98;102048;1313;75906;-25
2021/12/05 16:04:02;;;;;;;9.90;5.00;;;;;;;0.14;78.04;98160.39;102150;1317;73484;-25
2021/12/05 16:06:39;;;;;;;9.90;5.00;;;;;;;0.42;76.85;98166.05;102064;1313;61207;-23
2021/12/05 16:09:15;;;;;;;12.50;5.60;;;;;;;0.33;76.94;98166.06;102121;1316;62384;-25
2021/12/05 16:11:44;;;;;;;10.50;5.00;;;;;;;0.08;77.44;98164.80;101763;1314;72972;-23
2021/12/05 16:14:12;;;;;;;8.10;3.50;;;;;;;-0.18;77.97;98162.60;101807;1318;75942;-23
2021/12/05 16:16:41;;;;;;;11.50;5.40;;;;;;;-0.42;78.85;98162.61;102072;1313;72304;-24
2021/12/05 16:19:10;;;;;;;12.00;5.10;;;;;;;-0.28;79.46;98159.50;102059;1313;61820;-25
2021/12/05 16:21:39;;;;;;;9.90;4.00;;;;;;;0.25;77.89;98162.58;102202;1313;61084;-23
2021/12/05 16:24:12;;;;;;;16.90;6.50;;;;;;;0.35;77.50;98169.37;102127;1314;74161;-23
2021/12/05 16:26:42;;;;;;;11.80;5.70;;;;;;;0.18;77.49;98172.30;102007;1313;76152;-23
2021/12/05 16:29:13;;;;;;;7.50;3.60;;;;;;;-0.08;78.60;98175.02;102030;1313;74445;-23
2021/12/05 16:31:44;;;;;;;8.60;4.30;;;;;;;-0.32;79.38;98173.19;101697;1317;61102;-23
2021/12/05 16:34:17;;;;;;;11.20;5.00;;;;;;;-0.47;80.32;98173.44;102052;1312;61842;-23
2021/12/05 16:36:52;;;;;;;12.80;4.90;;;;;;;-0.01;79.64;98169.91;101887;1313;74646;-23
2021/12/05 16:39:42;;;;;;;9.60;4.60;;;;;;;0.25;78.58;98169.41;101920;1314;76184;-23
2021/12/05 16:42:17;;;;;;;10.50;5.50;;;;;;;0.11;78.69;98167.04;102135;1313;74532;-23
2021/12/05 16:44:51;;;;;;;10.70;4.10;;;;;;;-0.10;79.21;98171.39;101794;1316;61088;-23
2021/12/05 16:47:23;;;;;;;8.80;5.10;;;;;;;-0.36;80.06;98169.14;102227;1313;61281;-23
2021/12/05 16:49:53;;;;;;;12.30;4.70;;;;;;;-0.37;80.90;98169.48;102272;1317;74436;-23
2021/12/05 16:52:34;;;;;;;14.60;6.30;;;;;;;0.26;79.20;98173.80;102232;1313;76216;-23
2021/12/05 16:55:10;;;;;;;11.40;4.60;;;;;;;0.53;78.15;98177.11;102268;1314;72822;-23
2021/12/05 16:57:52;;;;;;;4.80;2.80;;;;;;;0.36;78.31;98176.48;102261;1314;61911;-23
2021/12/05 17:00:22;;;;;;;11.90;4.80;;;;;;;0.07;78.85;98172.54;102209;1314;61813;-24
2021/12/05 17:02:55;;;;;;;8.90;4.20;;;;;;;-0.20;79.88;98179.08;102169;1313;74647;-24
2021/12/05 17:05:28;;;;;;;6.50;3.40;;;;;;;-0.39;80.25;98173.02;101912;1314;76556;-24
2021/12/05 17:08:07;;;;;;;7.20;3.90;;;;;;;-0.03;80.29;98175.77;102102;1319;74501;-24